Time;durP1;ratioP1;P1;durP2;ratioP2;P2;SDS_P1;SDS_P2;PMS_P1;PMS_P2;Temp;Humidity;BMP_temperature;BMP_pressure;BME280_temperature;BME280_humidity;BME280_pressure;Samples;Min_cycle;Max_cycle;Signal;HPM_P1;HPM_P2
2022/12/10 00:01:43;;;;;;;44.03;25.30;;;;;;;6.03;59.92;96202.53;5061877;28;20540;-68
2022/12/10 00:04:10;;;;;;;39.97;25.80;;;;;;;6.07;59.92;96200.44;5067228;28;20413;-69
2022/12/10 00:06:37;;;;;;;43.83;24.40;;;;;;;6.06;59.75;96204.84;5065312;28;20193;-68
2022/12/10 00:09:04;;;;;;;43.97;24.70;;;;;;;6.01;59.69;96207.06;5067518;28;20413;-70
2022/12/10 00:11:30;;;;;;;39.37;25.03;;;;;;;6.07;59.71;96211.69;5064850;28;20441;-69
2022/12/10 00:13:56;;;;;;;43.10;25.40;;;;;;;6.06;59.75;96210.06;5060056;28;20449;-69
2022/12/10 00:16:24;;;;;;;38.70;24.90;;;;;;;6.02;59.79;96205.28;5067738;28;20645;-69
2022/12/10 00:18:50;;;;;;;42.70;25.17;;;;;;;6.05;59.90;96216.22;5061436;28;20421;-69
2022/12/10 00:21:19;;;;;;;39.00;24.80;;;;;;;6.06;59.71;96207.44;5068066;28;20819;-69
2022/12/10 00:23:45;;;;;;;40.33;24.90;;;;;;;6.05;60.12;96218.81;5062760;28;20500;-69
2022/12/10 00:26:13;;;;;;;41.40;23.90;;;;;;;6.08;59.89;96221.13;5067989;28;20420;-68
2022/12/10 00:28:39;;;;;;;36.77;24.30;;;;;;;6.13;60.03;96205.88;5055001;28;20417;-69
2022/12/10 00:31:07;;;;;;;39.97;24.50;;;;;;;6.16;60.17;96207.38;5059889;28;20497;-70
2022/12/10 00:33:33;;;;;;;40.30;24.70;;;;;;;6.11;60.25;96204.41;5060648;28;20448;-70
2022/12/10 00:36:25;;;;;;;36.73;23.87;;;;;;;6.20;60.07;96200.91;5068214;28;20773;-69
2022/12/10 00:38:50;;;;;;;38.93;22.60;;;;;;;6.26;59.62;96196.88;5052382;28;20210;-69
2022/12/10 00:41:16;;;;;;;35.67;24.03;;;;;;;6.23;59.62;96198.00;5055864;28;20524;-68
2022/12/10 00:43:42;;;;;;;36.97;23.60;;;;;;;6.26;59.49;96200.31;5062051;28;20191;-69
2022/12/10 00:46:09;;;;;;;36.90;22.67;;;;;;;6.29;59.35;96205.22;5063413;28;20206;-69
2022/12/10 00:48:34;;;;;;;40.70;23.70;;;;;;;6.29;59.17;96207.84;5066691;28;20923;-69
2022/12/10 00:51:04;;;;;;;34.07;22.23;;;;;;;6.30;59.06;96206.84;5064830;28;20534;-70
2022/12/10 00:53:30;;;;;;;40.13;23.57;;;;;;;6.23;59.22;96205.81;5067759;28;20190;-69
2022/12/10 00:55:57;;;;;;;35.10;24.00;;;;;;;6.25;59.22;96205.66;5064410;28;20779;-69
2022/12/10 00:58:23;;;;;;;34.67;23.20;;;;;;;6.20;59.45;96216.50;5059909;28;20983;-69
2022/12/10 01:00:49;;;;;;;32.20;22.03;;;;;;;6.25;59.40;96216.91;5062754;28;20409;-69
2022/12/10 01:03:15;;;;;;;37.33;22.80;;;;;;;6.23;59.43;96218.03;5062224;28;20453;-69
2022/12/10 01:05:41;;;;;;;42.20;22.47;;;;;;;6.29;59.09;96220.84;5061840;28;20421;-69
2022/12/10 01:08:06;;;;;;;35.50;23.03;;;;;;;6.30;59.02;96222.44;5053007;28;20436;-69
2022/12/10 01:10:32;;;;;;;36.90;23.23;;;;;;;6.33;58.84;96221.34;5064102;28;20275;-69
2022/12/10 01:12:57;;;;;;;34.63;22.20;;;;;;;6.32;58.84;96234.50;5065171;28;20279;-68
2022/12/10 01:15:22;;;;;;;34.03;22.20;;;;;;;6.28;58.63;96234.81;5056459;28;20234;-69
2022/12/10 01:17:48;;;;;;;33.67;22.27;;;;;;;6.20;58.78;96233.91;5065532;28;20262;-69
2022/12/10 01:20:13;;;;;;;33.20;21.90;;;;;;;6.24;58.87;96230.88;5061366;28;20203;-68
2022/12/10 01:22:39;;;;;;;31.07;21.60;;;;;;;6.30;58.37;96238.06;5066826;28;20620;-69
2022/12/10 01:25:04;;;;;;;38.20;22.20;;;;;;;6.28;58.72;96236.59;5061978;28;20192;-69
2022/12/10 01:27:30;;;;;;;33.23;22.47;;;;;;;6.30;58.77;96242.47;5051008;28;20166;-68
2022/12/10 01:29:55;;;;;;;33.20;21.83;;;;;;;6.34;58.71;96253.38;5065488;28;20189;-69
2022/12/10 01:32:21;;;;;;;34.67;22.57;;;;;;;6.39;58.55;96254.56;5058837;28;20235;-69
2022/12/10 01:34:47;;;;;;;32.13;21.60;;;;;;;6.38;58.07;96257.34;5067477;28;20638;-70
2022/12/10 01:37:13;;;;;;;37.10;22.60;;;;;;;6.39;58.27;96256.38;5065425;28;20497;-69
2022/12/10 01:39:39;;;;;;;37.73;21.50;;;;;;;6.41;58.36;96262.25;5057092;28;20256;-68
2022/12/10 01:42:04;;;;;;;33.30;22.10;;;;;;;6.40;58.16;96261.41;5067126;28;20696;-70
2022/12/10 01:44:30;;;;;;;32.33;21.70;;;;;;;6.40;58.42;96274.44;5058064;28;20197;-69
2022/12/10 01:46:58;;;;;;;30.73;21.20;;;;;;;6.38;58.18;96267.75;5065577;28;20188;-69
2022/12/10 01:49:35;;;;;;;33.20;21.43;;;;;;;6.38;58.30;96270.34;5063755;28;20190;-69
2022/12/10 01:52:01;;;;;;;39.90;23.13;;;;;;;6.38;58.41;96271.16;5070620;28;20461;-69
2022/12/10 01:54:29;;;;;;;36.33;22.93;;;;;;;6.40;58.02;96264.03;5070341;28;20514;-69
2022/12/10 01:56:59;;;;;;;36.90;22.70;;;;;;;6.38;58.25;96265.16;5069830;28;20433;-70
2022/12/10 01:59:25;;;;;;;35.03;22.20;;;;;;;6.32;57.79;96269.16;5070061;28;20545;-69
2022/12/10 02:02:04;;;;;;;34.80;23.53;;;;;;;6.32;58.26;96278.72;5065264;28;20455;-69
2022/12/10 02:04:42;;;;;;;34.73;22.73;;;;;;;6.29;58.14;96275.50;5069280;28;20417;-69
2022/12/10 02:07:18;;;;;;;36.23;22.37;;;;;;;6.29;58.10;96265.06;5059005;28;20421;-69
2022/12/10 02:10:09;;;;;;;37.03;21.77;;;;;;;6.27;57.92;96272.22;5069249;28;20911;-70
2022/12/10 02:12:49;;;;;;;35.70;22.63;;;;;;;6.26;58.25;96269.75;5066082;28;20433;-69
2022/12/10 02:15:43;;;;;;;33.57;22.93;;;;;;;6.20;58.56;96270.34;5055879;28;20462;-68
2022/12/10 02:18:21;;;;;;;36.63;24.17;;;;;;;6.19;58.42;96264.31;5051232;28;20467;-68
2022/12/10 02:20:53;;;;;;;38.93;23.57;;;;;;;6.25;58.48;96257.69;5068664;28;20831;-69
2022/12/10 02:23:25;;;;;;;37.03;23.83;;;;;;;6.23;58.68;96268.25;5069110;28;20444;-69
2022/12/10 02:26:32;;;;;;;32.30;22.17;;;;;;;6.26;58.61;96265.38;5060623;28;20841;-68
2022/12/10 02:29:17;;;;;;;30.53;20.90;;;;;;;6.27;58.25;96260.97;5025771;28;20425;-69
2022/12/10 02:31:46;;;;;;;33.73;21.97;;;;;;;6.34;57.99;96256.81;5056904;28;20516;-70
2022/12/10 02:34:12;;;;;;;33.30;22.90;;;;;;;6.30;57.88;96251.06;5068052;28;20464;-69
2022/12/10 02:36:39;;;;;;;40.60;22.93;;;;;;;6.28;58.01;96253.03;5075473;28;20431;-77
2022/12/10 02:39:08;;;;;;;34.33;21.50;;;;;;;6.28;58.15;96252.19;5073123;28;20421;-69
2022/12/10 02:41:36;;;;;;;34.57;22.40;;;;;;;6.24;58.33;96238.66;5069632;28;20444;-69
2022/12/10 02:44:04;;;;;;;34.53;22.43;;;;;;;6.27;58.21;96240.97;5062863;28;20412;-69
2022/12/10 02:46:31;;;;;;;30.87;21.70;;;;;;;6.29;57.86;96239.06;5066192;28;20508;-69
2022/12/10 02:48:57;;;;;;;33.83;22.47;;;;;;;6.26;57.72;96235.91;5067090;28;20412;-69
2022/12/10 02:51:23;;;;;;;36.73;23.07;;;;;;;6.21;57.69;96231.16;5070517;28;20498;-70
2022/12/10 02:53:59;;;;;;;36.27;22.87;;;;;;;6.12;58.37;96219.84;5055409;28;20460;-68
2022/12/10 02:56:38;;;;;;;31.57;22.60;;;;;;;6.15;58.30;96221.34;5072603;28;20228;-69
2022/12/10 02:59:15;;;;;;;34.07;22.13;;;;;;;6.11;58.05;96228.63;5072366;28;20416;-68
2022/12/10 03:02:06;;;;;;;32.40;21.60;;;;;;;6.04;57.93;96240.59;5060863;28;20452;-68
2022/12/10 03:04:46;;;;;;;33.50;22.43;;;;;;;5.99;58.80;96232.38;5062818;28;20421;-69
2022/12/10 03:07:20;;;;;;;35.93;22.30;;;;;;;5.96;58.90;96238.69;5059651;28;20971;-70
2022/12/10 03:09:52;;;;;;;33.80;21.83;;;;;;;5.94;59.09;96229.41;5070021;28;20460;-69
2022/12/10 03:12:23;;;;;;;36.57;22.73;;;;;;;5.99;59.00;96224.56;5065504;28;20786;-68
2022/12/10 03:14:48;;;;;;;35.27;22.20;;;;;;;6.07;59.51;96226.47;5067484;28;20461;-68
2022/12/10 03:17:14;;;;;;;32.30;21.77;;;;;;;6.09;58.91;96229.75;5071645;28;20412;-69
2022/12/10 03:19:44;;;;;;;34.40;22.20;;;;;;;6.12;58.93;96227.66;5063679;28;20719;-69
2022/12/10 03:22:11;;;;;;;29.83;20.80;;;;;;;6.13;58.96;96223.28;5065756;28;20433;-69
2022/12/10 03:24:37;;;;;;;33.63;21.77;;;;;;;6.17;58.95;96214.22;5071601;28;20409;-69
2022/12/10 03:27:04;;;;;;;33.50;21.07;;;;;;;6.22;58.57;96214.56;5071606;28;20416;-69
2022/12/10 03:29:33;;;;;;;32.27;20.73;;;;;;;6.22;58.48;96209.38;5052298;28;20175;-69
2022/12/10 03:31:59;;;;;;;34.27;21.53;;;;;;;6.22;58.16;96201.56;5068509;28;20441;-69
2022/12/10 03:34:25;;;;;;;34.67;21.80;;;;;;;6.21;58.19;96218.16;5064914;28;20885;-69
2022/12/10 03:36:51;;;;;;;33.43;22.80;;;;;;;6.12;58.60;96211.25;5072009;28;20209;-68
2022/12/10 03:39:17;;;;;;;34.30;22.17;;;;;;;6.12;58.47;96216.44;5065808;28;20258;-69
2022/12/10 03:41:42;;;;;;;31.20;21.10;;;;;;;6.15;58.55;96208.34;5072020;28;20537;-69
2022/12/10 03:44:08;;;;;;;31.97;20.57;;;;;;;6.15;58.40;96218.75;5056212;28;20651;-69
2022/12/10 03:46:33;;;;;;;33.23;22.60;;;;;;;6.10;58.56;96234.81;5066482;28;20178;-69
2022/12/10 03:49:00;;;;;;;37.97;23.07;;;;;;;6.05;58.97;96231.03;5066944;28;20280;-69
2022/12/10 03:51:25;;;;;;;31.77;21.33;;;;;;;6.00;59.19;96231.44;5071604;28;20182;-69
2022/12/10 03:53:51;;;;;;;31.00;21.33;;;;;;;6.04;58.66;96226.78;5070903;28;20985;-68
2022/12/10 03:56:18;;;;;;;30.53;20.30;;;;;;;6.14;58.89;96240.53;5069604;28;20184;-69
2022/12/10 03:58:43;;;;;;;37.87;22.27;;;;;;;6.22;58.41;96242.41;5067184;28;20178;-69
2022/12/10 04:01:09;;;;;;;32.77;20.53;;;;;;;6.28;58.35;96237.41;5069524;28;20775;-69
2022/12/10 04:03:37;;;;;;;33.07;22.43;;;;;;;6.28;58.31;96245.22;5072232;28;20175;-69
2022/12/10 04:06:08;;;;;;;33.23;21.80;;;;;;;6.18;58.10;96252.25;5072421;28;20178;-68
2022/12/10 04:08:34;;;;;;;34.23;19.90;;;;;;;6.09;58.66;96251.38;5053984;28;20504;-70
2022/12/10 04:11:07;;;;;;;32.27;21.80;;;;;;;6.13;58.52;96251.91;5070147;28;20413;-69
2022/12/10 04:16:26;;;;;;;35.63;21.13;;;;;;;6.25;58.38;96268.94;5061687;28;20437;-70
2022/12/10 04:18:52;;;;;;;33.03;22.10;;;;;;;6.19;57.98;96269.50;5071378;28;20409;-69
2022/12/10 04:26:55;;;;;;;33.70;20.83;;;;;;;6.17;57.93;96263.66;5063281;28;20471;-71
2022/12/10 04:29:28;;;;;;;34.37;21.03;;;;;;;6.13;58.08;96260.50;5063056;28;20424;-68
2022/12/10 04:31:54;;;;;;;32.00;21.30;;;;;;;6.07;57.93;96265.47;5053782;28;20540;-68
2022/12/10 04:34:20;;;;;;;31.20;20.80;;;;;;;6.17;57.95;96268.88;5044889;28;20457;-68
2022/12/10 04:36:46;;;;;;;32.17;21.80;;;;;;;6.17;58.19;96276.66;5064306;28;20482;-68
2022/12/10 04:39:11;;;;;;;31.27;21.10;;;;;;;6.10;57.90;96265.19;5067364;28;20455;-68
2022/12/10 04:41:39;;;;;;;30.23;20.77;;;;;;;6.19;57.87;96269.50;5070206;28;20562;-69
2022/12/10 04:44:05;;;;;;;34.50;21.67;;;;;;;6.16;57.49;96272.44;5062938;28;20171;-68
2022/12/10 04:46:30;;;;;;;30.77;21.37;;;;;;;6.13;57.78;96270.13;5053061;28;20427;-67
2022/12/10 04:48:56;;;;;;;31.53;20.73;;;;;;;6.01;58.20;96279.91;5071154;28;20621;-67
2022/12/10 04:51:21;;;;;;;37.33;21.03;;;;;;;5.99;58.07;96272.25;5061125;28;20210;-67
2022/12/10 04:53:47;;;;;;;30.97;21.03;;;;;;;6.05;58.21;96280.44;5055108;28;20245;-71
2022/12/10 04:56:12;;;;;;;30.07;20.40;;;;;;;6.05;58.24;96281.25;5066544;28;20265;-67
2022/12/10 04:58:37;;;;;;;32.53;21.67;;;;;;;6.07;58.21;96276.72;5070281;28;20726;-67
2022/12/10 05:01:04;;;;;;;31.00;20.63;;;;;;;6.09;57.95;96269.59;5070137;28;20257;-67
2022/12/10 05:03:30;;;;;;;30.50;20.47;;;;;;;6.09;58.46;96269.59;5069595;28;20212;-68
2022/12/10 05:05:55;;;;;;;30.87;20.90;;;;;;;6.04;57.98;96276.22;5038061;28;20520;-68
2022/12/10 05:08:21;;;;;;;30.97;19.47;;;;;;;6.01;57.87;96276.50;5029704;28;20186;-68
2022/12/10 05:10:46;;;;;;;33.53;20.57;;;;;;;6.01;58.02;96259.09;5059083;28;20187;-67
2022/12/10 05:13:11;;;;;;;32.47;20.30;;;;;;;5.99;58.21;96259.25;5066130;28;20190;-69
2022/12/10 05:15:38;;;;;;;34.00;21.17;;;;;;;6.01;58.13;96259.09;5066488;28;20285;-69
2022/12/10 05:18:03;;;;;;;32.97;21.20;;;;;;;5.99;58.32;96268.78;5070216;28;20235;-69
2022/12/10 05:20:29;;;;;;;33.47;21.27;;;;;;;6.01;58.33;96261.69;5066768;28;20412;-69
2022/12/10 05:25:52;;;;;;;31.57;20.37;;;;;;;6.06;57.89;96269.88;5049825;28;20178;-68
2022/12/10 05:28:21;;;;;;;30.57;20.80;;;;;;;6.04;58.24;96268.41;5056716;28;20410;-67
2022/12/10 05:30:47;;;;;;;30.63;19.80;;;;;;;6.10;57.97;96270.41;5044035;28;20431;-68
2022/12/10 05:33:13;;;;;;;32.60;19.70;;;;;;;6.08;58.11;96272.31;5063937;28;20445;-68
2022/12/10 05:35:38;;;;;;;31.47;20.53;;;;;;;6.11;58.15;96274.63;5065699;28;20213;-68
2022/12/10 05:38:05;;;;;;;28.07;19.50;;;;;;;6.14;57.78;96272.56;5070103;28;20174;-69
2022/12/10 05:40:34;;;;;;;32.13;22.00;;;;;;;6.08;57.72;96274.94;5060907;28;20178;-69
2022/12/10 05:42:59;;;;;;;28.13;20.40;;;;;;;6.05;57.84;96283.03;5069970;28;20451;-69
2022/12/10 05:45:24;;;;;;;30.40;20.77;;;;;;;6.05;57.77;96283.84;5058863;28;20426;-69
2022/12/10 05:47:50;;;;;;;34.30;22.83;;;;;;;6.10;57.75;96273.00;5067004;28;20578;-68
2022/12/10 05:50:15;;;;;;;34.43;23.10;;;;;;;5.91;57.67;96284.31;5061176;28;20339;-68
2022/12/10 05:52:41;;;;;;;31.57;20.23;;;;;;;5.96;57.95;96280.31;5065908;28;20225;-68
2022/12/10 05:55:06;;;;;;;33.63;21.80;;;;;;;6.03;57.81;96275.38;5069129;28;20241;-69
2022/12/10 05:57:32;;;;;;;32.00;21.10;;;;;;;5.93;58.38;96287.59;5068621;28;20178;-69
2022/12/10 05:59:57;;;;;;;30.40;21.07;;;;;;;5.99;58.04;96279.19;5059172;28;20689;-68
2022/12/10 06:02:23;;;;;;;32.20;21.83;;;;;;;5.96;58.10;96285.50;5060975;28;20658;-68
2022/12/10 06:04:48;;;;;;;31.10;20.80;;;;;;;6.01;58.02;96294.69;5064977;28;20232;-70
2022/12/10 06:07:13;;;;;;;31.43;20.57;;;;;;;5.99;57.67;96294.78;5049915;28;20203;-69
2022/12/10 06:09:39;;;;;;;34.93;22.27;;;;;;;5.98;57.80;96301.00;5060799;28;20222;-69
2022/12/10 06:12:05;;;;;;;32.77;22.67;;;;;;;6.01;57.85;96307.69;5073605;28;20291;-70
2022/12/10 06:14:30;;;;;;;40.83;23.00;;;;;;;5.93;57.63;96309.19;5051679;28;20198;-69
2022/12/10 06:16:55;;;;;;;37.23;22.77;;;;;;;6.02;57.60;96306.75;5068576;28;20178;-67
2022/12/10 06:19:21;;;;;;;33.20;22.57;;;;;;;5.98;57.44;96309.59;5073427;28;20194;-69
2022/12/10 06:21:46;;;;;;;30.57;21.33;;;;;;;5.98;57.51;96304.41;5074009;28;20228;-69
2022/12/10 06:24:12;;;;;;;34.00;22.90;;;;;;;5.94;57.48;96313.44;5073104;28;20250;-69
2022/12/10 06:26:37;;;;;;;37.57;22.87;;;;;;;5.97;57.58;96315.75;5069998;28;20198;-69
2022/12/10 06:29:04;;;;;;;35.87;21.80;;;;;;;5.90;57.22;96317.31;5074151;28;20269;-68
2022/12/10 06:31:30;;;;;;;35.00;22.30;;;;;;;5.86;57.56;96318.56;5068492;28;20171;-69
2022/12/10 06:33:55;;;;;;;33.10;21.43;;;;;;;5.83;57.67;96321.44;5053199;28;20472;-68
2022/12/10 06:36:21;;;;;;;34.00;21.97;;;;;;;5.81;57.65;96323.34;5053753;28;20574;-67
2022/12/10 06:38:47;;;;;;;33.33;22.20;;;;;;;5.84;57.87;96325.69;5056384;28;20194;-67
2022/12/10 06:41:15;;;;;;;34.83;22.00;;;;;;;5.83;57.42;96334.44;5062873;28;20178;-67
2022/12/10 06:43:40;;;;;;;34.93;22.47;;;;;;;5.83;57.35;96331.84;5061058;28;20413;-67
2022/12/10 06:46:11;;;;;;;31.93;21.33;;;;;;;5.74;57.61;96337.91;5053876;28;20431;-66
2022/12/10 06:48:37;;;;;;;31.80;22.37;;;;;;;5.68;57.64;96347.91;5059323;28;20184;-68
2022/12/10 06:51:03;;;;;;;34.37;22.50;;;;;;;5.70;57.85;96342.59;5065757;28;20472;-69
2022/12/10 06:53:31;;;;;;;35.33;22.17;;;;;;;5.74;58.01;96350.91;5043292;28;20759;-70
2022/12/10 06:56:00;;;;;;;37.93;23.13;;;;;;;5.71;57.85;96343.38;5060114;28;20940;-68
2022/12/10 06:58:29;;;;;;;37.67;22.63;;;;;;;5.75;57.83;96347.34;5057198;28;20801;-67
2022/12/10 07:01:02;;;;;;;35.00;22.30;;;;;;;5.66;57.68;96351.63;5059805;28;20778;-69
2022/12/10 07:03:27;;;;;;;34.17;22.57;;;;;;;5.60;58.24;96353.00;5052734;28;20519;-68
2022/12/10 07:05:57;;;;;;;40.37;24.23;;;;;;;5.64;58.11;96349.16;5053510;28;20457;-70
2022/12/10 07:08:23;;;;;;;37.87;23.53;;;;;;;5.71;58.25;96344.22;5062676;28;20186;-67
2022/12/10 07:10:48;;;;;;;36.00;22.67;;;;;;;5.65;57.94;96355.19;5054313;28;20414;-69
2022/12/10 07:13:14;;;;;;;34.20;21.53;;;;;;;5.70;57.64;96350.38;5059651;28;20468;-69
2022/12/10 07:15:39;;;;;;;38.83;21.93;;;;;;;5.59;57.80;96353.97;5055327;28;20773;-67
2022/12/10 07:18:05;;;;;;;33.90;21.70;;;;;;;5.51;58.42;96359.06;5064736;28;20726;-68
2022/12/10 07:20:30;;;;;;;37.63;22.87;;;;;;;5.58;57.84;96354.13;5060654;28;20206;-69
2022/12/10 07:22:56;;;;;;;35.10;22.87;;;;;;;5.56;58.46;96354.25;5028174;28;20199;-66
2022/12/10 07:25:21;;;;;;;35.33;22.20;;;;;;;5.50;58.09;96362.63;5066635;28;20174;-67
2022/12/10 07:27:47;;;;;;;37.43;23.10;;;;;;;5.55;58.41;96360.41;5058548;28;20209;-69
2022/12/10 07:30:12;;;;;;;37.27;22.50;;;;;;;5.58;57.80;96364.50;5060271;28;20186;-69
2022/12/10 07:32:38;;;;;;;32.63;22.10;;;;;;;5.54;58.41;96364.78;5053141;28;20238;-70
2022/12/10 07:35:03;;;;;;;37.60;23.07;;;;;;;5.52;58.26;96373.69;5059113;28;20281;-69
2022/12/10 07:37:29;;;;;;;35.63;22.80;;;;;;;5.60;57.83;96379.00;5054945;28;20186;-68
2022/12/10 07:39:54;;;;;;;37.00;23.27;;;;;;;5.58;57.88;96372.31;5058018;28;20214;-68
2022/12/10 07:42:20;;;;;;;34.87;23.03;;;;;;;5.51;58.26;96385.84;5058052;28;20260;-68
2022/12/10 07:44:45;;;;;;;33.47;21.83;;;;;;;5.60;57.77;96378.19;5059874;28;20182;-69
2022/12/10 07:47:11;;;;;;;38.43;23.70;;;;;;;5.60;57.74;96380.78;5053891;28;20186;-68
2022/12/10 07:49:36;;;;;;;35.87;24.03;;;;;;;5.61;57.57;96372.84;5061899;28;20618;-69
2022/12/10 07:52:02;;;;;;;32.70;21.83;;;;;;;5.63;57.88;96383.09;5057028;28;20737;-67
2022/12/10 07:54:27;;;;;;;35.10;21.70;;;;;;;5.67;57.80;96380.06;5057379;28;20294;-68
2022/12/10 07:56:52;;;;;;;34.30;21.90;;;;;;;5.64;57.21;96384.72;5058242;28;20218;-68
2022/12/10 07:59:18;;;;;;;32.90;23.50;;;;;;;5.64;57.40;96389.94;5055854;28;20221;-68
2022/12/10 08:01:43;;;;;;;37.60;22.30;;;;;;;5.68;57.64;96397.31;5058927;28;20285;-68
2022/12/10 08:04:09;;;;;;;33.00;22.17;;;;;;;5.69;57.65;96398.94;5055049;28;20712;-68
2022/12/10 08:06:35;;;;;;;34.70;22.37;;;;;;;5.73;57.35;96390.88;5060949;28;20233;-69
2022/12/10 08:09:00;;;;;;;35.37;21.77;;;;;;;5.71;57.30;96395.38;5058282;28;20225;-68
2022/12/10 08:11:26;;;;;;;42.77;22.57;;;;;;;5.73;57.22;96398.66;5057520;28;20569;-69
2022/12/10 08:13:52;;;;;;;34.07;21.23;;;;;;;5.78;56.75;96391.28;5053137;28;20207;-68
2022/12/10 08:16:20;;;;;;;36.57;22.43;;;;;;;5.73;56.92;96399.50;5050159;28;20444;-69
2022/12/10 08:18:46;;;;;;;32.33;21.23;;;;;;;5.75;57.10;96394.16;5050570;28;20193;-69
2022/12/10 08:21:14;;;;;;;37.40;22.50;;;;;;;5.74;56.71;96402.91;5051784;28;20429;-70
2022/12/10 08:23:41;;;;;;;32.77;22.47;;;;;;;5.74;57.09;96403.72;5050248;28;20432;-68
2022/12/10 08:26:08;;;;;;;31.20;21.20;;;;;;;5.67;56.88;96403.47;5050194;28;21129;-69
2022/12/10 08:28:34;;;;;;;36.50;23.23;;;;;;;5.69;56.38;96398.94;5048721;28;20491;-69
2022/12/10 08:31:00;;;;;;;33.03;21.43;;;;;;;5.71;57.03;96400.59;5052147;28;20428;-69
2022/12/10 08:33:26;;;;;;;32.47;21.20;;;;;;;5.70;57.08;96402.38;5050542;28;20457;-68
2022/12/10 08:35:51;;;;;;;32.43;21.37;;;;;;;5.68;57.03;96402.50;5050584;28;20221;-70
2022/12/10 08:38:16;;;;;;;34.50;22.90;;;;;;;5.67;57.08;96402.66;5051143;28;20272;-69
2022/12/10 08:40:42;;;;;;;35.93;23.30;;;;;;;5.66;57.26;96414.00;5052061;28;20197;-68
2022/12/10 08:43:08;;;;;;;32.17;22.00;;;;;;;5.66;57.32;96422.66;5056729;28;20206;-69
2022/12/10 08:45:34;;;;;;;35.60;22.80;;;;;;;5.66;57.39;96422.66;5052402;28;20206;-69
2022/12/10 08:48:02;;;;;;;33.47;22.27;;;;;;;5.73;56.96;96414.28;5051395;28;20186;-68
2022/12/10 08:50:28;;;;;;;37.23;23.70;;;;;;;5.74;56.82;96421.09;5059515;28;20239;-70
2022/12/10 08:52:53;;;;;;;30.70;21.83;;;;;;;5.73;57.26;96422.06;5058668;28;20844;-68
2022/12/10 08:55:19;;;;;;;32.63;21.53;;;;;;;5.75;56.92;96422.75;5060155;28;20212;-69
2022/12/10 08:57:44;;;;;;;35.67;23.50;;;;;;;5.80;57.17;96430.94;5047274;28;20186;-69
2022/12/10 09:00:10;;;;;;;36.17;23.07;;;;;;;5.81;57.00;96422.19;5044536;28;20238;-70
2022/12/10 09:02:36;;;;;;;35.90;23.60;;;;;;;5.79;57.00;96429.31;5050770;28;20214;-69
2022/12/10 09:05:01;;;;;;;34.93;23.57;;;;;;;5.77;57.42;96428.63;5051117;28;20937;-69
2022/12/10 09:07:26;;;;;;;36.47;23.63;;;;;;;5.77;57.01;96433.84;5061132;28;20642;-68
2022/12/10 09:09:52;;;;;;;32.97;22.03;;;;;;;5.81;56.80;96437.78;5050378;28;20187;-69
2022/12/10 09:12:17;;;;;;;34.27;22.80;;;;;;;5.82;57.00;96437.66;5044686;28;20219;-69
2022/12/10 09:14:43;;;;;;;34.90;23.00;;;;;;;5.79;56.91;96435.31;5037955;28;20207;-70
2022/12/10 09:17:08;;;;;;;44.10;26.20;;;;;;;5.78;56.40;96441.47;5049939;28;20270;-70
2022/12/10 09:19:34;;;;;;;36.07;24.67;;;;;;;5.75;57.15;96448.75;5052513;28;20217;-70
2022/12/10 09:21:59;;;;;;;36.20;25.17;;;;;;;5.67;56.65;96450.25;5050389;28;20206;-69
2022/12/10 09:24:25;;;;;;;39.50;24.07;;;;;;;5.67;56.46;96455.47;5050496;28;20187;-69
2022/12/10 09:26:50;;;;;;;42.30;23.73;;;;;;;5.70;56.96;96467.38;5050345;28;20226;-69
2022/12/10 09:29:16;;;;;;;37.87;24.53;;;;;;;5.70;56.53;96462.19;5044852;28;20219;-69
2022/12/10 09:31:41;;;;;;;34.77;23.33;;;;;;;5.79;56.28;96463.13;5046314;28;20670;-69
2022/12/10 09:34:06;;;;;;;33.90;23.63;;;;;;;5.75;56.39;96459.16;5045649;28;20252;-69
2022/12/10 09:36:32;;;;;;;39.57;25.60;;;;;;;5.71;56.39;96457.78;5050175;28;20178;-69
2022/12/10 09:38:57;;;;;;;34.00;22.50;;;;;;;5.64;56.76;96466.16;5038603;28;20192;-69
2022/12/10 09:41:32;;;;;;;38.30;24.93;;;;;;;5.64;56.79;96458.38;5053766;28;20241;-69
2022/12/10 09:44:07;;;;;;;34.50;23.57;;;;;;;5.67;56.48;96465.06;5058755;28;20179;-69
2022/12/10 09:46:50;;;;;;;33.17;22.47;;;;;;;5.71;57.08;96468.19;5049671;28;20432;-68
2022/12/10 09:49:40;;;;;;;39.90;24.67;;;;;;;5.69;56.86;96458.75;5060550;28;20848;-69
2022/12/10 09:52:11;;;;;;;36.00;24.00;;;;;;;5.73;56.34;96466.28;5047343;28;20446;-69
2022/12/10 09:54:40;;;;;;;38.40;23.57;;;;;;;5.78;56.45;96470.09;5039714;28;20460;-70
2022/12/10 09:57:14;;;;;;;41.63;26.17;;;;;;;5.83;56.62;96469.66;5043462;28;20504;-71
2022/12/10 09:59:42;;;;;;;36.80;23.13;;;;;;;5.79;56.31;96465.72;5045048;28;20428;-70
2022/12/10 10:02:27;;;;;;;37.40;22.90;;;;;;;5.75;56.16;96467.75;5043879;28;20516;-70
2022/12/10 10:05:06;;;;;;;37.80;24.03;;;;;;;5.77;56.39;96467.63;5044701;28;20414;-71
2022/12/10 10:07:33;;;;;;;37.43;24.90;;;;;;;5.80;55.96;96456.94;5041911;28;20893;-70
2022/12/10 10:10:23;;;;;;;35.40;22.93;;;;;;;5.77;56.39;96460.66;5047956;28;20429;-69
2022/12/10 10:12:49;;;;;;;34.40;23.17;;;;;;;5.81;56.15;96468.97;5044239;28;20450;-69
2022/12/10 10:15:19;;;;;;;35.77;23.23;;;;;;;5.81;56.21;96464.63;5046502;28;21014;-70
2022/12/10 10:17:46;;;;;;;38.43;23.93;;;;;;;5.85;56.10;96465.16;5042785;28;20440;-70
2022/12/10 10:20:13;;;;;;;35.87;22.80;;;;;;;5.86;55.93;96473.78;5046555;28;20775;-70
2022/12/10 10:22:39;;;;;;;39.80;24.40;;;;;;;5.90;56.67;96462.97;5046383;28;20453;-70
2022/12/10 10:25:08;;;;;;;37.90;24.00;;;;;;;5.95;56.75;96463.34;5049620;28;20506;-71
2022/12/10 10:27:33;;;;;;;36.53;23.83;;;;;;;6.04;57.14;96455.69;5043229;28;20833;-70
2022/12/10 10:30:01;;;;;;;38.40;25.07;;;;;;;6.14;56.90;96464.28;5047770;28;20418;-70
2022/12/10 10:32:35;;;;;;;36.40;24.13;;;;;;;6.21;56.37;96454.94;5048778;28;20301;-71
2022/12/10 10:35:02;;;;;;;36.00;23.70;;;;;;;6.24;55.70;96454.66;5046124;28;20588;-70
2022/12/10 10:37:30;;;;;;;35.60;23.87;;;;;;;6.29;55.76;96454.22;5044465;28;20432;-69
2022/12/10 10:39:56;;;;;;;39.57;25.90;;;;;;;6.37;55.46;96454.31;5048932;28;20917;-71
2022/12/10 10:42:27;;;;;;;35.83;24.03;;;;;;;6.45;55.70;96448.38;5051232;28;20452;-71
2022/12/10 10:44:52;;;;;;;37.67;24.20;;;;;;;6.52;55.73;96441.66;5047100;28;20448;-72
2022/12/10 10:47:27;;;;;;;32.63;22.87;;;;;;;6.53;54.83;96447.66;5050718;28;20941;-70
2022/12/10 10:49:53;;;;;;;39.13;23.80;;;;;;;6.60;54.98;96456.53;5057526;28;20269;-72
2022/12/10 10:52:19;;;;;;;37.10;24.07;;;;;;;6.55;53.47;96456.94;5048018;28;20525;-70
2022/12/10 10:54:46;;;;;;;34.77;22.90;;;;;;;6.55;53.17;96472.56;5049469;28;20211;-70
2022/12/10 10:57:36;;;;;;;33.00;22.07;;;;;;;6.51;53.27;96473.84;5049630;28;20434;-70
2022/12/10 11:00:17;;;;;;;32.97;22.70;;;;;;;6.50;54.17;96482.63;5054409;28;20417;-69
2022/12/10 11:02:42;;;;;;;41.80;24.60;;;;;;;6.50;54.01;96479.19;5036364;28;20533;-69
2022/12/10 11:05:25;;;;;;;34.67;23.43;;;;;;;6.53;53.89;96468.50;5069558;28;20413;-69
2022/12/10 11:08:01;;;;;;;33.73;22.20;;;;;;;6.49;53.81;96473.16;5061025;28;20183;-69
2022/12/10 11:10:27;;;;;;;38.23;23.93;;;;;;;6.50;54.50;96485.22;5059802;28;20429;-72
2022/12/10 11:13:23;;;;;;;33.93;23.10;;;;;;;6.52;53.89;96475.50;5051410;28;20429;-68
2022/12/10 11:15:56;;;;;;;37.33;24.30;;;;;;;6.58;54.01;96480.09;5054706;28;20478;-72
2022/12/10 11:18:35;;;;;;;34.80;22.47;;;;;;;6.61;53.89;96476.41;5059890;28;20485;-70
2022/12/10 11:21:05;;;;;;;33.20;22.93;;;;;;;6.67;54.44;96475.81;5056555;28;20422;-70
2022/12/10 11:23:37;;;;;;;34.30;22.43;;;;;;;6.65;53.83;96469.13;5055555;28;20452;-70
2022/12/10 11:26:15;;;;;;;37.90;24.20;;;;;;;6.70;53.74;96480.75;5053957;28;20414;-69
2022/12/10 11:28:46;;;;;;;32.10;20.60;;;;;;;6.65;53.46;96487.34;5057641;28;20414;-70
2022/12/10 11:31:29;;;;;;;30.43;20.57;;;;;;;6.60;53.53;96485.19;5053601;28;20418;-70
2022/12/10 11:34:09;;;;;;;35.60;20.13;;;;;;;6.56;53.27;96481.22;5058085;28;20480;-70
2022/12/10 11:36:39;;;;;;;32.13;20.53;;;;;;;6.61;53.25;96479.81;5044320;28;20448;-69
2022/12/10 11:39:11;;;;;;;34.30;21.33;;;;;;;6.68;53.49;96471.44;5060809;28;20547;-70
2022/12/10 11:41:47;;;;;;;33.20;21.13;;;;;;;6.70;53.65;96480.75;5060806;28;20410;-69